Time;durP1;ratioP1;P1;durP2;ratioP2;P2;SDS_P1;SDS_P2;PMS_P1;PMS_P2;Temp;Humidity;BMP_temperature;BMP_pressure;BME280_temperature;BME280_humidity;BME280_pressure;Samples;Min_cycle;Max_cycle;Signal;HPM_P1;HPM_P2
2023/01/07 00:04:53;;;;;;;;;;;;;;;18.00;38.53;101360.47;10633591;27;1212;-57
2023/01/07 00:09:53;;;;;;;;;;;;;;;18.04;38.11;101356.63;10633680;27;868;-57
2023/01/07 00:14:53;;;;;;;;;;;;;;;18.03;38.11;101346.97;10648689;27;1262;-62
2023/01/07 00:19:53;;;;;;;;;;;;;;;18.00;38.13;101344.50;10634758;27;1965;-57
2023/01/07 00:24:54;;;;;;;;;;;;;;;17.98;38.12;101345.63;10632941;27;1180;-58
2023/01/07 00:29:54;;;;;;;;;;;;;;;18.00;38.12;101333.06;10632498;27;848;-60
2023/01/07 00:34:54;;;;;;;;;;;;;;;17.99;38.13;101329.56;10631581;27;1255;-59
2023/01/07 00:39:54;;;;;;;;;;;;;;;18.00;38.08;101331.22;10631515;27;1967;-57
2023/01/07 00:44:54;;;;;;;;;;;;;;;17.99;38.21;101326.06;10631105;27;1265;-58
2023/01/07 00:49:55;;;;;;;;;;;;;;;17.97;38.21;101309.38;10631577;27;1177;-57
2023/01/07 00:54:55;;;;;;;;;;;;;;;17.95;37.93;101304.16;10631851;27;1268;-57
2023/01/07 00:59:55;;;;;;;;;;;;;;;17.97;37.96;101293.44;10630943;27;1963;-57
2023/01/07 01:04:55;;;;;;;;;;;;;;;17.97;37.84;101304.06;10630649;27;1189;-57
2023/01/07 01:09:56;;;;;;;;;;;;;;;17.99;38.03;101305.66;10630966;27;920;-59
2023/01/07 01:14:56;;;;;;;;;;;;;;;17.98;37.67;101303.94;10630625;27;1207;-63
2023/01/07 01:19:56;;;;;;;;;;;;;;;17.98;37.54;101316.38;10630528;27;1910;-58
2023/01/07 01:24:56;;;;;;;;;;;;;;;17.96;37.83;101303.22;10630339;27;1165;-57
2023/01/07 01:29:57;;;;;;;;;;;;;;;17.98;37.67;101308.41;10629195;27;872;-57
2023/01/07 01:34:57;;;;;;;;;;;;;;;18.01;37.67;101309.00;10628929;27;1190;-61
2023/01/07 01:39:57;;;;;;;;;;;;;;;17.99;37.65;101315.44;10628978;27;1972;-57
2023/01/07 01:44:58;;;;;;;;;;;;;;;18.01;37.65;101322.28;10628674;27;1281;-58
2023/01/07 01:50:00;;;;;;;;;;;;;;;18.03;37.48;101324.84;10629548;27;1052;-58
2023/01/07 01:55:00;;;;;;;;;;;;;;;18.01;37.51;101316.97;10610079;27;1188;-60
2023/01/07 02:00:01;;;;;;;;;;;;;;;18.01;37.58;101319.63;10609883;27;1926;-57
2023/01/07 02:05:01;;;;;;;;;;;;;;;18.01;37.36;101316.97;10610722;27;1296;-57
2023/01/07 02:10:09;;;;;;;;;;;;;;;18.02;37.51;101315.19;10628459;27;915;-57
2023/01/07 02:15:47;;;;;;;;;;;;;;;18.01;37.48;101309.00;10626871;27;1317;-57
2023/01/07 02:21:02;;;;;;;;;;;;;;;17.99;37.51;101308.31;10414756;28;1345;-58
2023/01/07 02:26:21;;;;;;;;;;;;;;;17.95;37.54;101298.84;10571157;27;1211;-59
2023/01/07 02:31:24;;;;;;;;;;;;;;;17.92;37.30;101284.97;10627776;27;796;-57
2023/01/07 02:36:43;;;;;;;;;;;;;;;17.89;37.44;101278.06;10626669;27;1906;-61
2023/01/07 02:41:56;;;;;;;;;;;;;;;17.93;37.50;101284.81;10608634;27;995;-62
2023/01/07 02:47:00;;;;;;;;;;;;;;;17.92;37.54;101269.88;10627805;27;1324;-58
2023/01/07 02:52:15;;;;;;;;;;;;;;;17.94;37.37;101267.94;10608966;27;938;-58
2023/01/07 02:57:34;;;;;;;;;;;;;;;17.91;37.49;101254.91;10626833;27;1967;-59
2023/01/07 03:02:43;;;;;;;;;;;;;;;17.89;37.44;101253.31;10639747;28;867;-60
2023/01/07 03:07:46;;;;;;;;;;;;;;;17.85;37.52;101252.66;10626681;27;1262;-58
2023/01/07 03:12:51;;;;;;;;;;;;;;;17.83;37.46;101235.19;10608319;28;1003;-57
2023/01/07 03:17:52;;;;;;;;;;;;;;;17.78;37.48;101243.47;10607770;28;1902;-58
2023/01/07 03:22:52;;;;;;;;;;;;;;;17.80;37.69;101233.59;10607608;27;1198;-59
2023/01/07 03:27:53;;;;;;;;;;;;;;;17.81;37.69;101234.44;10613924;27;854;-59
2023/01/07 03:32:56;;;;;;;;;;;;;;;17.83;37.58;101230.72;10634041;27;1242;-65
2023/01/07 03:37:57;;;;;;;;;;;;;;;17.85;37.54;101220.78;10615535;27;1976;-59
2023/01/07 03:42:58;;;;;;;;;;;;;;;17.88;37.59;101219.72;10615446;27;1183;-58
2023/01/07 03:47:58;;;;;;;;;;;;;;;17.85;37.42;101210.16;10633439;27;1058;-62
2023/01/07 03:52:58;;;;;;;;;;;;;;;17.86;37.43;101195.06;10633132;27;1274;-58
2023/01/07 03:57:58;;;;;;;;;;;;;;;17.88;37.45;101203.78;10629492;27;1897;-63
2023/01/07 04:02:58;;;;;;;;;;;;;;;17.87;37.46;101202.94;10629460;27;1209;-57
2023/01/07 04:07:59;;;;;;;;;;;;;;;17.86;37.56;101201.25;10630400;27;1045;-58
2023/01/07 04:12:59;;;;;;;;;;;;;;;17.81;37.68;101208.72;10632567;27;1280;-62
2023/01/07 04:17:59;;;;;;;;;;;;;;;17.78;37.70;101214.25;10632637;27;1955;-65
2023/01/07 04:22:59;;;;;;;;;;;;;;;17.81;37.61;101205.22;10632813;27;1185;-58
2023/01/07 04:27:59;;;;;;;;;;;;;;;17.87;37.31;101196.78;10632234;27;959;-59
2023/01/07 04:32:59;;;;;;;;;;;;;;;17.86;37.35;101200.38;10632902;27;1251;-61
2023/01/07 04:38:00;;;;;;;;;;;;;;;17.85;37.52;101188.09;10630493;27;1906;-62
2023/01/07 04:43:00;;;;;;;;;;;;;;;17.83;37.59;101201.50;10631684;27;1184;-57
2023/01/07 04:48:00;;;;;;;;;;;;;;;17.84;37.38;101197.88;10631219;27;915;-61
2023/01/07 04:53:00;;;;;;;;;;;;;;;17.90;37.53;101191.25;10632263;27;1261;-59
2023/01/07 04:58:00;;;;;;;;;;;;;;;17.89;37.43;101190.38;10630961;27;2025;-64
2023/01/07 05:03:01;;;;;;;;;;;;;;;17.90;37.50;101186.78;10631394;27;1392;-59
2023/01/07 05:08:01;;;;;;;;;;;;;;;17.91;37.27;101171.69;10631037;27;935;-58
2023/01/07 05:13:04;;;;;;;;;;;;;;;17.89;37.29;101169.13;10630181;27;1171;-58
2023/01/07 05:18:04;;;;;;;;;;;;;;;17.89;37.37;101169.13;10630762;27;1897;-60
2023/01/07 05:23:04;;;;;;;;;;;;;;;17.86;37.31;101177.31;10629780;27;1185;-61
2023/01/07 05:28:04;;;;;;;;;;;;;;;17.86;37.36;101157.88;10629863;27;1057;-61
2023/01/07 05:33:06;;;;;;;;;;;;;;;17.87;37.47;101154.28;10630049;27;1278;-65
2023/01/07 05:38:06;;;;;;;;;;;;;;;17.84;37.63;101163.34;10629443;27;1980;-66
2023/01/07 05:43:06;;;;;;;;;;;;;;;17.75;37.41;101150.75;10628791;27;1167;-63
2023/01/07 05:48:06;;;;;;;;;;;;;;;17.75;37.50;101161.38;10633702;27;797;-60
2023/01/07 05:53:06;;;;;;;;;;;;;;;17.77;37.66;101163.94;10638957;27;1192;-62
2023/01/07 05:58:07;;;;;;;;;;;;;;;17.75;37.65;101179.97;10629370;27;1905;-57
2023/01/07 06:03:07;;;;;;;;;;;;;;;17.75;37.67;101177.31;10628481;27;1186;-58
2023/01/07 06:08:07;;;;;;;;;;;;;;;17.81;37.70;101186.63;10627938;27;788;-58
2023/01/07 06:13:07;;;;;;;;;;;;;;;17.91;37.40;101191.13;10628834;27;1177;-58
2023/01/07 06:18:07;;;;;;;;;;;;;;;17.99;37.26;101186.06;10627764;27;1970;-59
2023/01/07 06:23:09;;;;;;;;;;;;;;;18.05;37.36;101190.06;10627780;27;1261;-59
2023/01/07 06:28:09;;;;;;;;;;;;;;;18.16;36.95;101183.91;10628684;27;896;-62
2023/01/07 06:33:09;;;;;;;;;;;;;;;18.17;36.97;101189.09;10627271;27;1183;-60
2023/01/07 06:38:09;;;;;;;;;;;;;;;18.29;36.82;101192.63;10608621;27;1905;-59
2023/01/07 06:43:09;;;;;;;;;;;;;;;18.34;36.75;101196.59;10627307;27;1309;-58
2023/01/07 06:48:10;;;;;;;;;;;;;;;18.38;36.84;101187.44;10608342;27;882;-64
2023/01/07 06:53:10;;;;;;;;;;;;;;;18.42;36.89;101191.53;10627567;27;1180;-60
2023/01/07 06:58:10;;;;;;;;;;;;;;;18.45;36.89;101182.47;10626928;27;1906;-59
2023/01/07 07:03:10;;;;;;;;;;;;;;;18.47;36.95;101191.16;10626346;27;1274;-60
2023/01/07 07:08:10;;;;;;;;;;;;;;;18.50;36.60;101183.78;10626286;28;899;-58
2023/01/07 07:13:11;;;;;;;;;;;;;;;18.54;36.70;101188.88;10626153;27;1192;-57
2023/01/07 07:18:11;;;;;;;;;;;;;;;18.58;36.80;101195.66;10626442;28;1977;-61
2023/01/07 07:23:11;;;;;;;;;;;;;;;18.56;36.76;101193.13;10608097;27;1184;-63
2023/01/07 07:28:12;;;;;;;;;;;;;;;18.64;36.88;101203.16;10626889;28;998;-60
2023/01/07 07:33:13;;;;;;;;;;;;;;;18.65;36.70;101211.00;10625742;27;1196;-63
2023/01/07 07:38:15;;;;;;;;;;;;;;;18.69;37.03;101209.78;10625580;28;1989;-65
2023/01/07 07:43:15;;;;;;;;;;;;;;;18.62;37.37;101199.75;10626016;27;1316;-64
2023/01/07 07:48:15;;;;;;;;;;;;;;;18.64;37.40;101193.34;10625400;28;1022;-64
2023/01/07 07:53:15;;;;;;;;;;;;;;;18.69;37.17;101201.00;10625430;27;1177;-65
2023/01/07 07:58:15;;;;;;;;;;;;;;;18.70;37.38;101198.19;10625737;28;1913;-65
2023/01/07 08:03:16;;;;;;;;;;;;;;;18.75;36.94;101209.31;10625943;27;1242;-63
2023/01/07 08:08:16;;;;;;;;;;;;;;;18.80;37.17;101195.63;10625645;28;980;-61
2023/01/07 08:13:16;;;;;;;;;;;;;;;18.80;37.35;101207.13;10628049;27;1211;-64
2023/01/07 08:18:17;;;;;;;;;;;;;;;18.77;37.60;101185.22;10632143;27;1967;-64
2023/01/07 08:23:18;;;;;;;;;;;;;;;18.75;37.84;101196.03;10632974;27;1307;-64
2023/01/07 08:28:18;;;;;;;;;;;;;;;18.72;38.48;101188.28;10615178;27;1184;-65
2023/01/07 08:33:19;;;;;;;;;;;;;;;18.76;38.15;101192.41;10616633;27;1286;-68
2023/01/07 08:38:19;;;;;;;;;;;;;;;18.76;38.38;101197.72;10641046;27;1991;-59
2023/01/07 08:43:19;;;;;;;;;;;;;;;18.73;38.64;101197.94;10631383;27;1270;-59
2023/01/07 08:48:19;;;;;;;;;;;;;;;18.70;38.33;101187.53;10631162;27;945;-60
2023/01/07 08:53:20;;;;;;;;;;;;;;;18.74;38.52;101181.03;10631982;27;1200;-59
2023/01/07 08:58:20;;;;;;;;;;;;;;;18.74;38.52;101175.69;10630801;27;1913;-60
2023/01/07 09:03:20;;;;;;;;;;;;;;;18.81;38.36;101168.06;10631424;27;1172;-56
2023/01/07 09:08:21;;;;;;;;;;;;;;;18.86;38.33;101166.72;10631383;27;925;-61
2023/01/07 09:13:21;;;;;;;;;;;;;;;18.94;42.03;101162.59;10630362;27;1297;-60
2023/01/07 09:18:21;;;;;;;;;;;;;;;19.11;44.32;101164.72;10630121;27;1894;-57
2023/01/07 09:23:21;;;;;;;;;;;;;;;19.42;44.76;101157.69;10632681;27;1168;-61
2023/01/07 09:28:22;;;;;;;;;;;;;;;19.53;45.37;101161.16;10630341;27;927;-60
2023/01/07 09:33:22;;;;;;;;;;;;;;;19.18;41.37;101157.91;10629423;27;1258;-60
2023/01/07 09:38:23;;;;;;;;;;;;;;;19.15;41.01;101166.97;10628873;27;1918;-59
2023/01/07 09:43:29;;;;;;;;;;;;;;;19.33;41.41;101166.44;10610978;27;1284;-60
2023/01/07 09:48:30;;;;;;;;;;;;;;;19.35;41.85;101160.03;10611324;27;892;-60
2023/01/07 09:53:34;;;;;;;;;;;;;;;19.27;41.19;101157.16;10628379;27;1215;-60
2023/01/07 09:58:34;;;;;;;;;;;;;;;19.17;40.77;101148.22;10629575;27;1909;-61
2023/01/07 10:03:55;;;;;;;;;;;;;;;19.14;40.60;101153.81;10629630;27;1206;-61
2023/01/07 10:09:00;;;;;;;;;;;;;;;19.07;40.66;101153.47;10627092;27;1129;-59
2023/01/07 10:14:01;;;;;;;;;;;;;;;19.05;40.04;101154.56;10609210;27;1265;-62
2023/01/07 10:19:16;;;;;;;;;;;;;;;19.09;40.25;101148.00;10628134;27;1905;-57
2023/01/07 10:24:16;;;;;;;;;;;;;;;19.00;40.31;101146.94;10609231;27;1257;-59
2023/01/07 10:29:35;;;;;;;;;;;;;;;18.83;40.30;101156.34;10627048;27;963;-58
2023/01/07 10:34:37;;;;;;;;;;;;;;;18.77;40.27;101164.78;10626689;27;1274;-59
2023/01/07 10:40:03;;;;;;;;;;;;;;;18.75;39.58;101169.41;10591469;27;1913;-56
2023/01/07 10:45:09;;;;;;;;;;;;;;;18.69;39.24;101169.88;10587849;27;1400;-57
2023/01/07 10:50:20;;;;;;;;;;;;;;;18.69;38.81;101169.88;10627881;27;851;-58
2023/01/07 10:55:42;;;;;;;;;;;;;;;18.72;38.67;101166.13;10627119;27;1301;-58
2023/01/07 11:00:44;;;;;;;;;;;;;;;18.70;38.54;101163.59;10606602;28;1979;-57
2023/01/07 11:05:44;;;;;;;;;;;;;;;18.70;38.65;101182.22;10626710;27;1182;-58
2023/01/07 11:10:45;;;;;;;;;;;;;;;18.70;38.42;101168.91;10608055;28;923;-59
2023/01/07 11:15:59;;;;;;;;;;;;;;;18.73;38.31;101165.19;10608353;27;1213;-60
2023/01/07 11:20:59;;;;;;;;;;;;;;;18.72;38.27;101166.13;10636181;28;867;-59
2023/01/07 11:26:07;;;;;;;;;;;;;;;18.72;37.66;101158.16;10590591;27;1839;-59
2023/01/07 11:31:07;;;;;;;;;;;;;;;18.68;37.97;101151.41;10608773;28;879;-58
2023/01/07 11:36:07;;;;;;;;;;;;;;;18.65;38.15;101136.53;10607511;27;1972;-71
2023/01/07 11:41:21;;;;;;;;;;;;;;;18.70;39.46;101134.34;10626367;28;808;-61
2023/01/07 11:46:21;;;;;;;;;;;;;;;18.70;39.62;101129.00;10627289;27;1199;-61
2023/01/07 11:51:22;;;;;;;;;;;;;;;18.74;39.93;101119.00;10615976;27;951;-58
2023/01/07 11:56:23;;;;;;;;;;;;;;;18.76;39.50;101112.59;10615589;27;1969;-57
2023/01/07 12:01:23;;;;;;;;;;;;;;;18.75;39.53;101116.22;10615077;27;864;-58
2023/01/07 12:06:24;;;;;;;;;;;;;;;18.74;40.39;101119.00;10633576;27;1173;-58
2023/01/07 12:11:28;;;;;;;;;;;;;;;18.68;39.25;101108.84;10632943;27;860;-68
2023/01/07 12:16:29;;;;;;;;;;;;;;;18.71;40.19;101111.25;10614345;27;1906;-58
2023/01/07 12:21:38;;;;;;;;;;;;;;;18.64;38.48;101107.41;10632422;27;943;-57
2023/01/07 12:26:44;;;;;;;;;;;;;;;18.62;38.21;101109.31;10632741;27;1233;-58
2023/01/07 12:31:50;;;;;;;;;;;;;;;18.57;38.11;101108.84;10631979;27;912;-55
2023/01/07 12:37:00;;;;;;;;;;;;;;;18.64;38.56;101110.91;10632065;27;1909;-53
2023/01/07 12:42:12;;;;;;;;;;;;;;;18.69;38.41;101119.34;10618309;27;1288;-65
2023/01/07 12:47:14;;;;;;;;;;;;;;;18.64;38.17;101118.88;10636769;27;1267;-65
2023/01/07 12:52:18;;;;;;;;;;;;;;;18.60;39.71;101132.56;10633199;27;946;-65
2023/01/07 12:57:20;;;;;;;;;;;;;;;18.53;38.91;101132.19;10612784;27;1909;-65
2023/01/07 13:02:24;;;;;;;;;;;;;;;18.48;38.86;101131.69;10612394;27;1019;-56
2023/01/07 13:07:44;;;;;;;;;;;;;;;18.50;41.54;101132.41;10631205;27;1273;-54
2023/01/07 13:12:45;;;;;;;;;;;;;;;18.73;43.03;101134.09;10631038;27;1662;-70
2023/01/07 13:17:45;;;;;;;;;;;;;;;18.78;42.22;101118.59;10612897;27;1947;-71
2023/01/07 13:22:50;;;;;;;;;;;;;;;18.86;42.21;101112.66;10631403;27;832;-62
2023/01/07 13:27:53;;;;;;;;;;;;;;;19.03;41.15;101109.44;10613638;27;1175;-72
2023/01/07 13:32:56;;;;;;;;;;;;;;;18.94;41.44;101093.38;10630104;27;789;-54
2023/01/07 13:37:56;;;;;;;;;;;;;;;18.91;41.10;101105.16;10628885;27;2427;-55
2023/01/07 13:43:05;;;;;;;;;;;;;;;18.83;40.09;101100.47;10629140;27;971;-56
2023/01/07 13:48:19;;;;;;;;;;;;;;;18.80;40.90;101100.69;10628800;27;1191;-54
2023/01/07 13:53:19;;;;;;;;;;;;;;;18.92;41.66;101098.84;10631861;27;1003;-55
2023/01/07 13:58:39;;;;;;;;;;;;;;;18.90;40.70;101095.47;10636865;27;1879;-59
2023/01/07 14:03:42;;;;;;;;;;;;;;;18.84;39.27;101096.00;10630608;27;1413;-63
2023/01/07 14:09:03;;;;;;;;;;;;;;;18.84;40.47;101104.78;10644671;27;836;-76
2023/01/07 14:14:08;;;;;;;;;;;;;;;18.82;40.13;101098.78;10586023;27;1566;-68
2023/01/07 14:19:27;;;;;;;;;;;;;;;18.87;40.17;101090.41;10632216;27;1935;-83
2023/01/07 14:24:46;;;;;;;;;;;;;;;18.87;40.69;101079.75;10657812;27;1203;-85
2023/01/07 14:29:46;;;;;;;;;;;;;;;18.84;40.07;101078.19;10659000;27;1001;-74
2023/01/07 14:35:02;;;;;;;;;;;;;;;18.93;40.40;101081.06;10627141;27;1283;-58
2023/01/07 14:40:21;;;;;;;;;;;;;;;18.97;39.74;101087.81;10629806;27;1894;-56
2023/01/07 14:45:40;;;;;;;;;;;;;;;19.08;39.68;101077.13;10608356;27;1336;-56
2023/01/07 14:50:41;;;;;;;;;;;;;;;19.35;40.19;101089.94;10626582;27;1170;-56
2023/01/07 14:55:59;;;;;;;;;;;;;;;19.40;40.25;101085.91;10626713;27;1263;-57
2023/01/07 15:01:02;;;;;;;;;;;;;;;19.49;40.22;101074.50;10627213;27;1031;-57
2023/01/07 15:06:11;;;;;;;;;;;;;;;19.55;39.97;101067.81;10626809;27;1334;-58
2023/01/07 15:16:33;;;;;;;;;;;;;;;19.54;39.20;101072.28;10626625;27;1958;-56
2023/01/07 15:21:49;;;;;;;;;;;;;;;19.49;39.62;101071.84;10611241;27;812;-57
2023/01/07 15:27:06;;;;;;;;;;;;;;;19.58;39.15;101076.41;10636179;27;1191;-56
2023/01/07 15:32:28;;;;;;;;;;;;;;;19.53;39.54;101077.78;10618004;27;1279;-56
2023/01/07 15:37:28;;;;;;;;;;;;;;;19.49;39.57;101077.19;10638253;27;1889;-58
2023/01/07 15:42:28;;;;;;;;;;;;;;;19.41;39.52;101068.97;10620471;27;878;-58
2023/01/07 15:47:40;;;;;;;;;;;;;;;19.36;39.70;101060.53;10639441;27;1277;-57
2023/01/07 15:52:45;;;;;;;;;;;;;;;19.32;40.06;101069.72;10620413;27;915;-56
2023/01/07 15:57:46;;;;;;;;;;;;;;;19.28;40.07;101073.66;10618683;27;1965;-56
2023/01/07 16:02:46;;;;;;;;;;;;;;;19.25;40.16;101073.88;10618080;27;1134;-57
2023/01/07 16:07:56;;;;;;;;;;;;;;;19.29;39.81;101067.34;10617614;27;1184;-59
2023/01/07 16:12:57;;;;;;;;;;;;;;;19.08;40.04;101072.63;10634273;27;991;-57
2023/01/07 16:17:58;;;;;;;;;;;;;;;19.01;39.79;101062.63;10634029;27;1960;-57
2023/01/07 16:23:19;;;;;;;;;;;;;;;18.99;40.16;101065.44;10634729;27;1017;-57
2023/01/07 16:28:20;;;;;;;;;;;;;;;18.95;38.89;101063.16;10633118;27;1202;-58
2023/01/07 16:33:20;;;;;;;;;;;;;;;18.96;40.09;101071.00;10614604;27;855;-57
2023/01/07 16:38:21;;;;;;;;;;;;;;;18.96;39.46;101071.00;10615331;27;1983;-58
2023/01/07 16:43:47;;;;;;;;;;;;;;;18.91;39.26;101067.91;10639718;27;923;-58
2023/01/07 16:49:07;;;;;;;;;;;;;;;18.95;39.63;101060.50;10630095;27;1238;-58
2023/01/07 16:54:20;;;;;;;;;;;;;;;18.92;39.00;101050.13;10631818;27;1350;-56
2023/01/07 16:59:21;;;;;;;;;;;;;;;18.86;39.16;101046.13;10632348;27;1905;-56
2023/01/07 17:04:26;;;;;;;;;;;;;;;18.80;38.54;101044.84;10613263;27;1195;-57
2023/01/07 17:09:27;;;;;;;;;;;;;;;18.68;38.78;101040.53;10630757;27;904;-56
2023/01/07 17:14:34;;;;;;;;;;;;;;;18.78;38.63;101038.78;10631349;27;1274;-60
2023/01/07 17:19:38;;;;;;;;;;;;;;;19.05;39.72;101040.13;10631092;27;1957;-59
2023/01/07 17:24:38;;;;;;;;;;;;;;;19.22;38.45;101031.56;10630063;27;1172;-59
2023/01/07 17:29:40;;;;;;;;;;;;;;;19.18;38.45;101038.97;10630788;27;856;-58
2023/01/07 17:34:40;;;;;;;;;;;;;;;19.31;38.57;101038.75;10611467;27;1223;-59
2023/01/07 17:39:42;;;;;;;;;;;;;;;19.35;38.89;101045.53;10629386;27;1901;-58
2023/01/07 17:44:42;;;;;;;;;;;;;;;19.37;38.85;101040.06;10629389;27;1224;-59
2023/01/07 17:49:42;;;;;;;;;;;;;;;19.28;38.94;101039.03;10629014;27;940;-60
2023/01/07 17:54:43;;;;;;;;;;;;;;;19.30;38.86;101034.41;10628678;27;1200;-59
2023/01/07 17:59:46;;;;;;;;;;;;;;;19.42;39.36;101022.72;10628447;27;1976;-59
2023/01/07 18:04:47;;;;;;;;;;;;;;;19.32;38.85;101007.66;10628864;27;1208;-61
2023/01/07 18:09:47;;;;;;;;;;;;;;;19.48;37.91;101006.22;10628716;27;785;-61
2023/01/07 18:14:47;;;;;;;;;;;;;;;19.51;38.11;101013.13;10628908;27;1226;-59
2023/01/07 18:19:49;;;;;;;;;;;;;;;19.86;39.78;101004.72;10628478;27;1972;-56
2023/01/07 18:24:49;;;;;;;;;;;;;;;20.19;39.00;101003.56;10627698;27;1257;-57
2023/01/07 18:29:49;;;;;;;;;;;;;;;20.30;37.37;100990.09;10628393;27;883;-60
2023/01/07 18:34:49;;;;;;;;;;;;;;;20.43;36.79;100998.72;10627246;27;1261;-58
2023/01/07 18:39:50;;;;;;;;;;;;;;;20.56;36.39;100991.28;10628675;27;1969;-58
2023/01/07 18:44:50;;;;;;;;;;;;;;;20.76;38.07;101008.97;10626799;27;1298;-59
2023/01/07 18:49:50;;;;;;;;;;;;;;;20.81;38.21;100989.88;10627665;27;792;-60
2023/01/07 18:54:50;;;;;;;;;;;;;;;20.89;36.57;101005.19;10626372;27;1172;-57
2023/01/07 18:59:51;;;;;;;;;;;;;;;21.33;36.61;100995.72;10626929;27;1905;-60
2023/01/07 19:04:51;;;;;;;;;;;;;;;20.94;38.34;100990.41;10608052;27;1168;-60
2023/01/07 19:09:51;;;;;;;;;;;;;;;20.80;38.21;100978.34;10627551;28;1035;-60
2023/01/07 19:14:51;;;;;;;;;;;;;;;21.72;39.78;100970.53;10626371;27;1292;-59
2023/01/07 19:19:51;;;;;;;;;;;;;;;20.92;40.52;100955.00;10627491;28;1964;-59
2023/01/07 19:24:53;;;;;;;;;;;;;;;20.78;38.46;100963.47;10625087;27;1195;-58
2023/01/07 19:29:53;;;;;;;;;;;;;;;20.77;38.47;100973.28;10617055;28;887;-59
2023/01/07 19:34:53;;;;;;;;;;;;;;;21.66;45.51;100960.44;10626972;27;1842;-57
2023/01/07 19:39:53;;;;;;;;;;;;;;;24.11;31.43;100952.31;10625789;28;1960;-58
2023/01/07 19:44:57;;;;;;;;;;;;;;;21.18;37.06;100957.94;10607237;27;1306;-61
2023/01/07 19:49:57;;;;;;;;;;;;;;;19.99;40.78;100968.84;10625513;28;920;-67
2023/01/07 19:54:57;;;;;;;;;;;;;;;19.94;40.12;100963.09;10626150;27;1184;-70
2023/01/07 19:59:57;;;;;;;;;;;;;;;19.87;39.27;100955.78;10625916;28;1906;-58
2023/01/07 20:04:58;;;;;;;;;;;;;;;19.84;40.74;100953.38;10628443;27;1205;-61
2023/01/07 20:09:58;;;;;;;;;;;;;;;19.76;39.68;100953.22;10633560;27;859;-61
2023/01/07 20:14:59;;;;;;;;;;;;;;;19.91;39.71;100950.00;10632953;27;1270;-60
2023/01/07 20:19:59;;;;;;;;;;;;;;;20.02;39.40;100943.75;10633249;27;1902;-65
2023/01/07 20:24:59;;;;;;;;;;;;;;;20.17;39.32;100938.84;10632447;27;1176;-58
2023/01/07 20:29:59;;;;;;;;;;;;;;;20.69;38.95;100948.28;10632293;27;1047;-60
2023/01/07 20:34:59;;;;;;;;;;;;;;;20.89;38.03;100935.78;10631749;27;1465;-56
2023/01/07 20:40:00;;;;;;;;;;;;;;;20.74;38.82;100936.22;10632704;27;1894;-69
2023/01/07 20:45:00;;;;;;;;;;;;;;;20.91;39.65;100931.97;10614185;27;1299;-68
2023/01/07 20:50:00;;;;;;;;;;;;;;;20.80;41.36;100924.13;10632492;27;852;-64
2023/01/07 20:55:01;;;;;;;;;;;;;;;20.72;40.17;100921.34;10613376;27;1204;-55
2023/01/07 21:00:02;;;;;;;;;;;;;;;20.60;40.68;100912.63;10613406;27;1890;-55
2023/01/07 21:05:02;;;;;;;;;;;;;;;20.53;40.32;100905.31;10612304;27;1196;-56
2023/01/07 21:10:03;;;;;;;;;;;;;;;20.37;39.98;100905.91;10630848;27;784;-60
2023/01/07 21:15:03;;;;;;;;;;;;;;;20.17;39.79;100905.03;10631027;27;1202;-59
2023/01/07 21:20:04;;;;;;;;;;;;;;;20.22;39.94;100902.78;10630053;27;1910;-61
2023/01/07 21:25:04;;;;;;;;;;;;;;;20.17;39.55;100894.38;10630572;27;1202;-56
2023/01/07 21:30:05;;;;;;;;;;;;;;;20.14;39.66;100889.28;10629915;27;895;-58
2023/01/07 21:35:05;;;;;;;;;;;;;;;20.04;39.76;100878.66;10629114;27;1282;-55
2023/01/07 21:40:06;;;;;;;;;;;;;;;19.99;39.79;100880.88;10629828;27;1909;-55
2023/01/07 21:45:06;;;;;;;;;;;;;;;19.96;39.84;100877.66;10629773;27;1188;-54
2023/01/07 21:50:07;;;;;;;;;;;;;;;19.75;40.06;100868.94;10629167;27;1033;-55
2023/01/07 21:55:07;;;;;;;;;;;;;;;19.85;39.78;100862.63;10630133;27;1247;-53
2023/01/07 22:00:08;;;;;;;;;;;;;;;19.86;39.92;100863.47;10629183;27;1905;-55
2023/01/07 22:05:08;;;;;;;;;;;;;;;19.73;39.98;100858.41;10628828;27;1275;-55
2023/01/07 22:10:08;;;;;;;;;;;;;;;19.71;39.93;100865.69;10638364;27;761;-60
2023/01/07 22:15:08;;;;;;;;;;;;;;;19.72;39.98;100855.88;10632103;27;1193;-57
2023/01/07 22:20:09;;;;;;;;;;;;;;;19.74;39.82;100848.59;10628367;27;1898;-54
2023/01/07 22:25:09;;;;;;;;;;;;;;;19.67;40.06;100842.13;10627250;27;1191;-57
2023/01/07 22:30:10;;;;;;;;;;;;;;;19.66;39.92;100846.63;10626521;27;942;-54
2023/01/07 22:35:10;;;;;;;;;;;;;;;19.64;39.92;100845.91;10627435;27;1377;-54
2023/01/07 22:40:10;;;;;;;;;;;;;;;19.66;39.84;100846.63;10627154;27;1909;-54
2023/01/07 22:45:17;;;;;;;;;;;;;;;19.60;39.64;100836.53;10627727;27;1274;-56
2023/01/07 22:50:17;;;;;;;;;;;;;;;19.57;39.87;100831.47;10627938;27;1041;-54
2023/01/07 22:55:17;;;;;;;;;;;;;;;19.60;39.80;100828.53;10627287;27;1201;-54
2023/01/07 23:00:36;;;;;;;;;;;;;;;19.55;39.73;100817.44;10627107;27;1905;-54
2023/01/07 23:05:38;;;;;;;;;;;;;;;19.46;40.24;100812.88;10626984;27;1276;-54
2023/01/07 23:10:38;;;;;;;;;;;;;;;19.37;40.30;100806.59;10626906;27;922;-55
2023/01/07 23:15:39;;;;;;;;;;;;;;;19.22;40.47;100803.44;10626496;27;1184;-54
2023/01/07 23:20:39;;;;;;;;;;;;;;;19.08;40.28;100801.16;10626643;28;1905;-55
2023/01/07 23:25:43;;;;;;;;;;;;;;;19.13;40.77;100795.44;10626618;27;1302;-54
2023/01/07 23:30:43;;;;;;;;;;;;;;;19.12;40.55;100783.94;10626564;28;860;-60
2023/01/07 23:35:44;;;;;;;;;;;;;;;19.10;40.07;100788.56;10626521;27;2041;-55
2023/01/07 23:40:44;;;;;;;;;;;;;;;19.09;40.24;100764.72;10626578;28;1971;-58
2023/01/07 23:45:45;;;;;;;;;;;;;;;19.04;40.14;100766.97;10633983;27;1283;-55
2023/01/07 23:50:45;;;;;;;;;;;;;;;18.98;40.04;100736.44;10633939;27;883;-55
2023/01/07 23:55:51;;;;;;;;;;;;;;;18.98;40.08;100733.78;10633925;27;1265;-55
